x

Texas Tower #4 - 75 Nm East Of Long Beach, Nj (44066) Wave Buoy

10:50am - Sat 20th Dec 2014 All times are EST. -5 hours from GMT.

  • Sig Wave height 2.0ft
  • Swell Direction
  • Peak Period 4s
  • Average Period 4s
  • Wind
    7mph, 9mph gusts
  • Sea Temp 54°f
  • Air Temp 38°f
  • Sea Pressure 1024.2mb
  • Texas Tower #4 - 75 Nm East Of Long Beach, Nj
  • Texas Tower #4 - 75 Nm East Of Long Beach, Nj

More Historic Weather Station data

Upgrade to MSW Pro to gain access to the past 30 days of data for over 8000 Wavebouys and Weather Stations around the globe.

Join Pro

Comparision Forecast

View Surf forecast
   
Sat 12/20 10:50am 2ft 4s 4s 7 9 mph 1024.2mb 54f 38f
9:50am 2ft 4s 4s 9 13 mph 1024.4mb 54f 38f
8:50am 2ft 4s 4s 9 13 mph 1023.8mb 55f 38f
7:50am 2ft 4s 4s 9 13 mph 1023.3mb 55f 38f
6:50am 2.5ft 5s 4s 9 13 mph 1023.2mb 55f 38f
5:50am 2.5ft 5s 4s 11 16 mph 1022.7mb 55f 38f
4:50am 3ft 5s 4s 11 16 mph 1021.9mb 55f 38f
3:50am 3.5ft 5s 4s 13 18 mph 1021.1mb 55f 38f
2:50am 3.5ft 5s 5s 16 20 mph 1021mb 54f 38f
1:50am 3.5ft 6s 4s 16 20 mph 1020.8mb 54f 39f
12:50am 3.5ft 6s 4s 13 18 mph 1020.8mb 54f 39f
Fri 12/19 11:50pm 3.5ft 6s 4s 11 16 mph 1020.9mb 54f 39f
10:50pm 4ft 6s 4s 16 20 mph 1020.4mb 54f 39f
9:50pm 4ft 6s 4s 13 20 mph 1020.1mb 54f 39f
8:50pm 4.5ft 5s 4s 16 25 mph 1019.2mb 55f 40f
7:50pm 4.5ft 6s 4s 18 22 mph 1019.5mb 55f 40f
6:50pm 4.5ft 6s 5s 18 22 mph 1019.1mb 55f 40f
5:50pm  -   -   -  18 22 mph 1018.3mb 56f 40f
4:50pm 5ft 6s 5s 20 27 mph 1016.9mb 56f 39f
3:50pm 5ft 5s 5s 20 27 mph 1016.4mb 55f 39f
2:50pm 5ft 6s 5s 22 27 mph 1016mb 55f 39f
1:50pm 4.5ft 6s 5s 20 27 mph 1015.6mb 55f 39f
12:50pm 4.5ft 6s 5s 20 27 mph 1015.4mb 55f 40f
11:50am 4.5ft 6s 4s 20 25 mph 1015.5mb 55f 41f
10:50am 4.5ft 6s 4s 18 25 mph 1016.1mb 55f 41f
9:50am 4.5ft 6s 5s 18 22 mph 1016.2mb 55f 41f
8:50am 5ft 6s 5s 18 29 mph 1015.6mb 55f 42f
7:50am 5ft 6s 5s 22 27 mph 1015mb 55f 42f
6:50am 4.5ft 6s 5s 22 25 mph 1014.3mb 55f 42f
5:50am 5ft 6s 5s 20 25 mph 1013.9mb 56f 42f
4:50am  -   -   -  18 22 mph 1013.9mb 56f 42f
3:50am 4.5ft 6s 5s 20 22 mph 1013.9mb 55f 42f
2:50am 5ft 6s 5s 20 22 mph 1013.9mb 55f 42f
1:50am 5ft 6s 5s 18 22 mph 1013.9mb 55f 42f
12:50am 4.5ft 6s 5s 18 22 mph 1013.7mb 55f 42f
Thu 12/18 11:50pm 5ft 6s 5s 20 25 mph 1013.9mb 55f 42f
10:50pm 5.5ft 6s 5s 20 25 mph 1014.3mb 55f 42f
9:50pm 5.5ft 7s 5s 20 27 mph 1014.4mb 55f 43f
8:50pm 6ft 6s 5s 22 25 mph 1014.3mb 55f 43f
7:50pm 6.5ft 7s 5s 22 29 mph 1014.2mb 55f 43f
6:50pm 6.5ft 6s 5s 20 27 mph 1013.9mb 55f 43f
5:50pm 7ft 7s 5s 22 29 mph 1014.1mb 55f 43f
4:50pm 7ft 7s 5s 22 27 mph 1013.9mb 55f 42f
3:50pm 7ft 7s 5s 22 29 mph 1013.1mb 55f 42f
2:50pm 7.5ft 7s 5s 25 31 mph 1013mb 55f 42f
1:50pm 7.5ft 7s 6s 22 29 mph 1013.3mb 55f 42f
12:50pm 8ft 7s 6s 25 29 mph 1013.4mb 55f 41f
11:50am 9ft 7s 6s 25 31 mph 1014mb 55f 41f
10:50am 8ft 7s 6s 27 31 mph 1014.6mb 55f 41f
9:50am 9ft 8s 6s 27 34 mph 1014.9mb 55f 41f
8:50am 8.5ft 7s 6s 27 34 mph 1014.3mb 55f 42f
7:50am 9ft 7s 6s 27 34 mph 1013.7mb 55f 42f
6:50am 9ft 7s 6s 29 34 mph 1013.2mb 55f 42f
5:50am 10ft 8s 6s 29 36 mph 1012.4mb 55f 43f
4:50am  -   -   -  29 40 mph 1011.5mb 55f 43f
3:50am 9ft 7s 6s 29 34 mph 1011.4mb 55f 43f
2:50am  -   -   -  27
mph
1011.6mb 55f 43f
1:50am  -   -   -  27 31 mph 1011.3mb 55f 44f
12:50am 7.5ft 7s 6s 25 31 mph 1011.2mb 55f 45f
Wed 12/17 11:50pm 8ft 7s 6s 29 34 mph 1011mb 55f 46f
10:50pm  -   -   -  27 31 mph 1011.7mb 55f 47f
9:50pm 8.5ft 6s 6s 27 31 mph 1011.5mb 55f 48f
8:50pm  -   -   -  27 34 mph 1011.5mb 55f 49f
7:50pm  -   -   -  27 34 mph 1011.6mb 55f 50f
6:50pm 6.5ft 6s 5s 25 31 mph 1011.3mb 56f 51f
5:50pm 6ft 6s 5s 27 31 mph 1010.3mb 56f 52f
4:50pm 6ft 6s 5s 29 36 mph 1009.6mb 56f 52f
3:50pm  -   -   -  25 29 mph 1009.2mb 56f 52f
2:50pm 6ft 6s 5s 22 27 mph 1009.3mb 56f 52f
1:50pm 6ft 6s 5s 22 27 mph 1009mb 56f 51f
12:50pm 6.5ft 6s 5s 22 27 mph 1008.7mb 55f 50f
11:50am 5.5ft 6s 5s 22 27 mph 1009.6mb 55f 49f
10:50am 5ft 5s 5s 22 27 mph 1010.3mb 55f 49f
9:50am  -   -   -  20 25 mph 1010.5mb 56f 50f
8:50am 4.5ft 5s 4s 20 25 mph 1009.9mb 56f 50f
7:50am 4ft 5s 4s 22 27 mph 1009mb 56f 50f
6:50am  -   -   -  20 22 mph 1008.9mb 56f 51f
5:50am 4ft 5s 4s 18 20 mph 1008.9mb 56f 51f
4:50am 4ft 5s 4s 18 22 mph 1008.6mb 56f 52f
3:50am 4ft 5s 4s 18 20 mph 1008.5mb 56f 52f
2:50am 4ft 5s 4s 18 22 mph 1008.4mb 56f 52f
1:50am 3.5ft 5s 4s 18 22 mph 1008.5mb 56f 53f
12:50am 3.5ft 5s 4s 16 18 mph 1009mb 56f 54f
Tue 12/16 11:50pm  -   -   -  20 25 mph 1010mb 56f 54f
10:50pm 3.5ft 4s 4s 22 29 mph 1010.8mb 56f 56f
9:50pm 2.5ft 8s 4s 16 18 mph 1011.1mb 56f 58f
8:50pm 2.5ft 9s 5s 18 20 mph 1011.1mb 56f 57f
7:50pm 2.5ft 10s 6s 13 16 mph 1012.5mb 56f 55f
6:50pm 2.5ft 11s 6s 11 13 mph 1013.7mb 56f 54f
5:50pm 2.5ft 11s 6s 9 11 mph 1014.6mb 56f 53f